sensor_id;sensor_type;location;lat;lon;timestamp;P1;durP1;ratioP1;P2;durP2;ratioP2
77214;SDS011;66210;53.282;9.864;2023-08-24T00:01:33;4.43;;;2.30;;
77214;SDS011;66210;53.282;9.864;2023-08-24T00:03:59;6.68;;;2.50;;
77214;SDS011;66210;53.282;9.864;2023-08-24T00:06:26;5.15;;;2.03;;
77214;SDS011;66210;53.282;9.864;2023-08-24T00:08:53;4.05;;;2.17;;
77214;SDS011;66210;53.282;9.864;2023-08-24T00:11:20;6.55;;;2.15;;
77214;SDS011;66210;53.282;9.864;2023-08-24T00:13:47;5.43;;;1.92;;
77214;SDS011;66210;53.282;9.864;2023-08-24T00:16:17;2.75;;;1.90;;
77214;SDS011;66210;53.282;9.864;2023-08-24T00:18:45;3.55;;;1.88;;
77214;SDS011;66210;53.282;9.864;2023-08-24T00:21:13;4.40;;;2.08;;
77214;SDS011;66210;53.282;9.864;2023-08-24T00:23:43;5.40;;;1.90;;
77214;SDS011;66210;53.282;9.864;2023-08-24T00:26:10;2.53;;;1.85;;
77214;SDS011;66210;53.282;9.864;2023-08-24T00:28:37;6.30;;;2.60;;
77214;SDS011;66210;53.282;9.864;2023-08-24T00:31:03;5.10;;;1.92;;
77214;SDS011;66210;53.282;9.864;2023-08-24T00:33:30;3.67;;;2.30;;
77214;SDS011;66210;53.282;9.864;2023-08-24T00:36:00;5.05;;;2.20;;
77214;SDS011;66210;53.282;9.864;2023-08-24T00:38:27;3.45;;;2.20;;
77214;SDS011;66210;53.282;9.864;2023-08-24T00:40:55;6.25;;;1.88;;
77214;SDS011;66210;53.282;9.864;2023-08-24T00:43:22;4.22;;;2.00;;
77214;SDS011;66210;53.282;9.864;2023-08-24T00:45:50;3.90;;;2.22;;
77214;SDS011;66210;53.282;9.864;2023-08-24T00:48:18;3.50;;;1.80;;
77214;SDS011;66210;53.282;9.864;2023-08-24T00:50:45;7.30;;;2.17;;
77214;SDS011;66210;53.282;9.864;2023-08-24T00:53:12;4.10;;;1.90;;
77214;SDS011;66210;53.282;9.864;2023-08-24T00:55:39;8.60;;;2.25;;
77214;SDS011;66210;53.282;9.864;2023-08-24T00:58:06;3.40;;;1.98;;
77214;SDS011;66210;53.282;9.864;2023-08-24T01:00:34;4.82;;;2.17;;
77214;SDS011;66210;53.282;9.864;2023-08-24T01:03:01;3.47;;;2.00;;
77214;SDS011;66210;53.282;9.864;2023-08-24T01:05:28;6.15;;;2.00;;
77214;SDS011;66210;53.282;9.864;2023-08-24T01:07:54;5.10;;;2.20;;
77214;SDS011;66210;53.282;9.864;2023-08-24T01:10:21;2.10;;;1.75;;
77214;SDS011;66210;53.282;9.864;2023-08-24T01:12:52;5.43;;;2.17;;
77214;SDS011;66210;53.282;9.864;2023-08-24T01:18:13;3.63;;;2.03;;
77214;SDS011;66210;53.282;9.864;2023-08-24T01:20:42;3.97;;;1.90;;
77214;SDS011;66210;53.282;9.864;2023-08-24T01:23:45;2.28;;;1.77;;
77214;SDS011;66210;53.282;9.864;2023-08-24T01:28:46;6.38;;;2.10;;
77214;SDS011;66210;53.282;9.864;2023-08-24T01:31:14;4.65;;;2.08;;
77214;SDS011;66210;53.282;9.864;2023-08-24T01:33:45;4.43;;;2.17;;
77214;SDS011;66210;53.282;9.864;2023-08-24T01:36:13;2.80;;;1.88;;
77214;SDS011;66210;53.282;9.864;2023-08-24T01:38:43;4.78;;;2.28;;
77214;SDS011;66210;53.282;9.864;2023-08-24T01:41:22;4.80;;;2.20;;
77214;SDS011;66210;53.282;9.864;2023-08-24T01:43:57;3.22;;;1.75;;
77214;SDS011;66210;53.282;9.864;2023-08-24T01:46:26;3.92;;;2.10;;
77214;SDS011;66210;53.282;9.864;2023-08-24T01:48:54;2.08;;;1.50;;
77214;SDS011;66210;53.282;9.864;2023-08-24T01:51:21;4.18;;;2.10;;
77214;SDS011;66210;53.282;9.864;2023-08-24T01:53:50;3.15;;;2.08;;
77214;SDS011;66210;53.282;9.864;2023-08-24T01:56:18;3.42;;;1.92;;
77214;SDS011;66210;53.282;9.864;2023-08-24T01:58:44;2.63;;;1.77;;
77214;SDS011;66210;53.282;9.864;2023-08-24T02:01:11;4.32;;;2.20;;
77214;SDS011;66210;53.282;9.864;2023-08-24T02:03:39;2.17;;;1.70;;
77214;SDS011;66210;53.282;9.864;2023-08-24T02:06:06;3.38;;;1.75;;
77214;SDS011;66210;53.282;9.864;2023-08-24T02:08:33;5.25;;;1.90;;
77214;SDS011;66210;53.282;9.864;2023-08-24T02:11:00;9.98;;;2.05;;
77214;SDS011;66210;53.282;9.864;2023-08-24T02:13:27;3.83;;;2.10;;
77214;SDS011;66210;53.282;9.864;2023-08-24T02:16:03;4.40;;;2.00;;
77214;SDS011;66210;53.282;9.864;2023-08-24T02:18:31;3.55;;;2.10;;
77214;SDS011;66210;53.282;9.864;2023-08-24T02:20:58;2.95;;;1.80;;
77214;SDS011;66210;53.282;9.864;2023-08-24T02:23:25;4.10;;;1.70;;
77214;SDS011;66210;53.282;9.864;2023-08-24T02:25:52;3.80;;;1.88;;
77214;SDS011;66210;53.282;9.864;2023-08-24T02:28:18;2.92;;;1.95;;
77214;SDS011;66210;53.282;9.864;2023-08-24T02:30:45;3.25;;;1.80;;
77214;SDS011;66210;53.282;9.864;2023-08-24T02:33:11;3.15;;;2.30;;
77214;SDS011;66210;53.282;9.864;2023-08-24T02:35:38;2.35;;;2.00;;
77214;SDS011;66210;53.282;9.864;2023-08-24T02:38:04;4.13;;;2.03;;
77214;SDS011;66210;53.282;9.864;2023-08-24T02:40:31;3.25;;;1.77;;
77214;SDS011;66210;53.282;9.864;2023-08-24T02:42:58;7.80;;;2.42;;
77214;SDS011;66210;53.282;9.864;2023-08-24T02:45:24;4.28;;;1.75;;
77214;SDS011;66210;53.282;9.864;2023-08-24T02:47:51;5.30;;;1.90;;
77214;SDS011;66210;53.282;9.864;2023-08-24T02:50:18;2.67;;;1.67;;
77214;SDS011;66210;53.282;9.864;2023-08-24T02:52:44;4.28;;;2.08;;
77214;SDS011;66210;53.282;9.864;2023-08-24T02:55:12;4.25;;;1.95;;
77214;SDS011;66210;53.282;9.864;2023-08-24T02:57:38;4.47;;;1.83;;
77214;SDS011;66210;53.282;9.864;2023-08-24T03:00:05;2.10;;;1.80;;
77214;SDS011;66210;53.282;9.864;2023-08-24T03:02:33;3.22;;;1.70;;
77214;SDS011;66210;53.282;9.864;2023-08-24T03:05:00;7.10;;;2.25;;
77214;SDS011;66210;53.282;9.864;2023-08-24T03:07:27;3.60;;;1.77;;
77214;SDS011;66210;53.282;9.864;2023-08-24T03:09:54;2.00;;;1.75;;
77214;SDS011;66210;53.282;9.864;2023-08-24T03:12:20;3.72;;;2.08;;
77214;SDS011;66210;53.282;9.864;2023-08-24T03:14:47;2.40;;;1.80;;
77214;SDS011;66210;53.282;9.864;2023-08-24T03:17:17;3.67;;;1.80;;
77214;SDS011;66210;53.282;9.864;2023-08-24T03:19:44;3.70;;;2.00;;
77214;SDS011;66210;53.282;9.864;2023-08-24T03:22:10;4.10;;;1.98;;
77214;SDS011;66210;53.282;9.864;2023-08-24T03:24:37;5.70;;;2.00;;
77214;SDS011;66210;53.282;9.864;2023-08-24T03:27:03;3.55;;;2.00;;
77214;SDS011;66210;53.282;9.864;2023-08-24T03:29:30;4.03;;;2.17;;
77214;SDS011;66210;53.282;9.864;2023-08-24T03:31:56;3.03;;;1.90;;
77214;SDS011;66210;53.282;9.864;2023-08-24T03:34:23;6.35;;;2.17;;
77214;SDS011;66210;53.282;9.864;2023-08-24T03:36:49;3.10;;;2.10;;
77214;SDS011;66210;53.282;9.864;2023-08-24T03:39:16;2.13;;;1.80;;
77214;SDS011;66210;53.282;9.864;2023-08-24T03:41:42;2.67;;;1.90;;
77214;SDS011;66210;53.282;9.864;2023-08-24T03:44:09;2.65;;;1.92;;
77214;SDS011;66210;53.282;9.864;2023-08-24T03:46:36;4.30;;;1.70;;
77214;SDS011;66210;53.282;9.864;2023-08-24T03:49:02;4.75;;;2.90;;
77214;SDS011;66210;53.282;9.864;2023-08-24T03:51:29;2.55;;;1.98;;
77214;SDS011;66210;53.282;9.864;2023-08-24T03:53:56;6.05;;;2.20;;
77214;SDS011;66210;53.282;9.864;2023-08-24T03:56:22;4.07;;;1.90;;
77214;SDS011;66210;53.282;9.864;2023-08-24T03:58:49;3.47;;;1.73;;
77214;SDS011;66210;53.282;9.864;2023-08-24T04:01:16;5.72;;;1.88;;
77214;SDS011;66210;53.282;9.864;2023-08-24T04:03:43;6.35;;;2.30;;
77214;SDS011;66210;53.282;9.864;2023-08-24T04:06:10;3.83;;;2.15;;
77214;SDS011;66210;53.282;9.864;2023-08-24T04:08:36;2.97;;;2.10;;
77214;SDS011;66210;53.282;9.864;2023-08-24T04:11:03;2.90;;;1.85;;
77214;SDS011;66210;53.282;9.864;2023-08-24T04:13:30;3.90;;;2.03;;
77214;SDS011;66210;53.282;9.864;2023-08-24T04:15:57;3.63;;;2.15;;
77214;SDS011;66210;53.282;9.864;2023-08-24T04:18:24;3.75;;;1.95;;
77214;SDS011;66210;53.282;9.864;2023-08-24T04:20:52;4.03;;;2.20;;
77214;SDS011;66210;53.282;9.864;2023-08-24T04:23:23;5.75;;;1.98;;
77214;SDS011;66210;53.282;9.864;2023-08-24T04:25:51;6.45;;;1.70;;
77214;SDS011;66210;53.282;9.864;2023-08-24T04:28:19;3.42;;;1.95;;
77214;SDS011;66210;53.282;9.864;2023-08-24T04:30:53;3.08;;;2.00;;
77214;SDS011;66210;53.282;9.864;2023-08-24T04:33:22;3.47;;;2.00;;
77214;SDS011;66210;53.282;9.864;2023-08-24T04:35:49;4.93;;;2.15;;
77214;SDS011;66210;53.282;9.864;2023-08-24T04:38:16;4.03;;;2.00;;
77214;SDS011;66210;53.282;9.864;2023-08-24T04:43:21;3.15;;;1.85;;
77214;SDS011;66210;53.282;9.864;2023-08-24T04:45:49;2.67;;;1.75;;
77214;SDS011;66210;53.282;9.864;2023-08-24T04:48:20;3.80;;;1.88;;
77214;SDS011;66210;53.282;9.864;2023-08-24T04:50:48;5.10;;;2.15;;
77214;SDS011;66210;53.282;9.864;2023-08-24T04:53:16;4.03;;;1.92;;
77214;SDS011;66210;53.282;9.864;2023-08-24T04:55:44;3.50;;;1.88;;
77214;SDS011;66210;53.282;9.864;2023-08-24T04:58:11;2.30;;;1.80;;
77214;SDS011;66210;53.282;9.864;2023-08-24T05:00:39;3.35;;;1.75;;
77214;SDS011;66210;53.282;9.864;2023-08-24T05:03:06;5.50;;;2.05;;
77214;SDS011;66210;53.282;9.864;2023-08-24T05:05:35;2.75;;;1.80;;
77214;SDS011;66210;53.282;9.864;2023-08-24T05:08:03;3.97;;;2.20;;
77214;SDS011;66210;53.282;9.864;2023-08-24T05:10:33;4.82;;;1.98;;
77214;SDS011;66210;53.282;9.864;2023-08-24T05:13:00;2.90;;;1.83;;
77214;SDS011;66210;53.282;9.864;2023-08-24T05:15:27;7.38;;;2.28;;
77214;SDS011;66210;53.282;9.864;2023-08-24T05:17:53;2.83;;;1.80;;
77214;SDS011;66210;53.282;9.864;2023-08-24T05:20:22;2.75;;;2.08;;
77214;SDS011;66210;53.282;9.864;2023-08-24T05:22:49;2.53;;;1.95;;
77214;SDS011;66210;53.282;9.864;2023-08-24T05:25:16;3.67;;;2.03;;
77214;SDS011;66210;53.282;9.864;2023-08-24T05:27:43;2.65;;;2.00;;
77214;SDS011;66210;53.282;9.864;2023-08-24T05:30:11;2.75;;;1.83;;
77214;SDS011;66210;53.282;9.864;2023-08-24T05:32:38;4.70;;;2.05;;
77214;SDS011;66210;53.282;9.864;2023-08-24T05:35:05;5.32;;;1.98;;
77214;SDS011;66210;53.282;9.864;2023-08-24T05:37:33;2.17;;;1.80;;
77214;SDS011;66210;53.282;9.864;2023-08-24T05:40:01;3.13;;;1.83;;
77214;SDS011;66210;53.282;9.864;2023-08-24T05:42:31;4.25;;;1.88;;
77214;SDS011;66210;53.282;9.864;2023-08-24T05:44:57;3.17;;;1.70;;
77214;SDS011;66210;53.282;9.864;2023-08-24T05:47:24;5.28;;;2.08;;
77214;SDS011;66210;53.282;9.864;2023-08-24T05:49:50;6.57;;;2.42;;
77214;SDS011;66210;53.282;9.864;2023-08-24T05:52:17;2.53;;;1.90;;
77214;SDS011;66210;53.282;9.864;2023-08-24T05:54:43;4.40;;;2.40;;
77214;SDS011;66210;53.282;9.864;2023-08-24T05:57:10;3.53;;;2.45;;
77214;SDS011;66210;53.282;9.864;2023-08-24T05:59:36;5.95;;;2.10;;
77214;SDS011;66210;53.282;9.864;2023-08-24T06:02:03;3.83;;;2.38;;
77214;SDS011;66210;53.282;9.864;2023-08-24T06:04:30;6.53;;;3.47;;
77214;SDS011;66210;53.282;9.864;2023-08-24T06:06:57;5.60;;;2.55;;
77214;SDS011;66210;53.282;9.864;2023-08-24T06:09:23;5.25;;;2.58;;
77214;SDS011;66210;53.282;9.864;2023-08-24T06:11:50;5.28;;;2.60;;
77214;SDS011;66210;53.282;9.864;2023-08-24T06:14:17;5.60;;;2.40;;
77214;SDS011;66210;53.282;9.864;2023-08-24T06:16:43;4.45;;;2.75;;
77214;SDS011;66210;53.282;9.864;2023-08-24T06:19:10;4.40;;;2.70;;
77214;SDS011;66210;53.282;9.864;2023-08-24T06:21:36;9.25;;;4.50;;
77214;SDS011;66210;53.282;9.864;2023-08-24T06:24:03;10.20;;;4.38;;
77214;SDS011;66210;53.282;9.864;2023-08-24T06:26:30;13.07;;;4.88;;
77214;SDS011;66210;53.282;9.864;2023-08-24T06:28:56;11.57;;;3.70;;
77214;SDS011;66210;53.282;9.864;2023-08-24T06:31:23;9.65;;;3.40;;
77214;SDS011;66210;53.282;9.864;2023-08-24T06:33:50;10.02;;;4.03;;
77214;SDS011;66210;53.282;9.864;2023-08-24T06:36:16;8.00;;;3.78;;
77214;SDS011;66210;53.282;9.864;2023-08-24T06:38:43;11.88;;;4.53;;
77214;SDS011;66210;53.282;9.864;2023-08-24T06:41:10;10.00;;;4.85;;
77214;SDS011;66210;53.282;9.864;2023-08-24T06:43:38;9.50;;;4.70;;
77214;SDS011;66210;53.282;9.864;2023-08-24T06:46:05;13.65;;;4.95;;
77214;SDS011;66210;53.282;9.864;2023-08-24T06:48:35;6.90;;;4.63;;
77214;SDS011;66210;53.282;9.864;2023-08-24T06:51:03;9.80;;;4.90;;
77214;SDS011;66210;53.282;9.864;2023-08-24T06:53:30;12.63;;;4.47;;
77214;SDS011;66210;53.282;9.864;2023-08-24T06:55:56;12.73;;;4.82;;
77214;SDS011;66210;53.282;9.864;2023-08-24T06:58:24;12.88;;;4.30;;
77214;SDS011;66210;53.282;9.864;2023-08-24T07:00:50;9.35;;;4.95;;
77214;SDS011;66210;53.282;9.864;2023-08-24T07:03:17;10.55;;;4.53;;
77214;SDS011;66210;53.282;9.864;2023-08-24T07:05:45;13.90;;;5.13;;
77214;SDS011;66210;53.282;9.864;2023-08-24T07:08:12;7.85;;;4.38;;
77214;SDS011;66210;53.282;9.864;2023-08-24T07:10:40;6.75;;;4.38;;
77214;SDS011;66210;53.282;9.864;2023-08-24T07:13:09;13.68;;;4.55;;
77214;SDS011;66210;53.282;9.864;2023-08-24T07:15:36;9.35;;;4.35;;
77214;SDS011;66210;53.282;9.864;2023-08-24T07:18:02;9.82;;;4.18;;
77214;SDS011;66210;53.282;9.864;2023-08-24T07:20:30;10.73;;;3.65;;
77214;SDS011;66210;53.282;9.864;2023-08-24T07:22:56;7.20;;;3.92;;
77214;SDS011;66210;53.282;9.864;2023-08-24T07:25:25;10.25;;;4.15;;
77214;SDS011;66210;53.282;9.864;2023-08-24T07:27:52;10.15;;;3.33;;
77214;SDS011;66210;53.282;9.864;2023-08-24T07:30:24;8.45;;;4.43;;
77214;SDS011;66210;53.282;9.864;2023-08-24T07:33:00;9.10;;;5.35;;
77214;SDS011;66210;53.282;9.864;2023-08-24T07:35:27;10.77;;;4.53;;
77214;SDS011;66210;53.282;9.864;2023-08-24T07:37:54;12.10;;;6.07;;
77214;SDS011;66210;53.282;9.864;2023-08-24T07:40:21;12.02;;;5.82;;
77214;SDS011;66210;53.282;9.864;2023-08-24T07:42:48;12.23;;;5.25;;
77214;SDS011;66210;53.282;9.864;2023-08-24T07:45:23;14.10;;;5.32;;
77214;SDS011;66210;53.282;9.864;2023-08-24T07:47:51;11.88;;;4.95;;
77214;SDS011;66210;53.282;9.864;2023-08-24T07:50:18;9.15;;;3.85;;
77214;SDS011;66210;53.282;9.864;2023-08-24T07:52:45;11.05;;;5.05;;
77214;SDS011;66210;53.282;9.864;2023-08-24T07:55:12;8.20;;;4.88;;
77214;SDS011;66210;53.282;9.864;2023-08-24T07:57:39;14.85;;;4.72;;
77214;SDS011;66210;53.282;9.864;2023-08-24T08:00:06;11.38;;;4.05;;
77214;SDS011;66210;53.282;9.864;2023-08-24T08:02:35;10.75;;;4.30;;
77214;SDS011;66210;53.282;9.864;2023-08-24T08:05:03;9.98;;;4.28;;
77214;SDS011;66210;53.282;9.864;2023-08-24T08:07:31;9.35;;;4.22;;
77214;SDS011;66210;53.282;9.864;2023-08-24T08:09:57;7.07;;;3.95;;
77214;SDS011;66210;53.282;9.864;2023-08-24T08:12:24;8.55;;;3.92;;
77214;SDS011;66210;53.282;9.864;2023-08-24T08:14:50;7.70;;;3.78;;
77214;SDS011;66210;53.282;9.864;2023-08-24T08:17:17;12.18;;;3.63;;
77214;SDS011;66210;53.282;9.864;2023-08-24T08:20:05;8.02;;;3.63;;
77214;SDS011;66210;53.282;9.864;2023-08-24T08:23:17;9.63;;;4.18;;
77214;SDS011;66210;53.282;9.864;2023-08-24T08:25:48;11.48;;;4.15;;
77214;SDS011;66210;53.282;9.864;2023-08-24T08:28:18;5.47;;;3.05;;
77214;SDS011;66210;53.282;9.864;2023-08-24T08:30:45;5.82;;;4.10;;
77214;SDS011;66210;53.282;9.864;2023-08-24T08:33:14;8.55;;;2.97;;
77214;SDS011;66210;53.282;9.864;2023-08-24T08:35:40;5.65;;;3.40;;
77214;SDS011;66210;53.282;9.864;2023-08-24T08:38:07;7.82;;;3.17;;
77214;SDS011;66210;53.282;9.864;2023-08-24T08:40:36;6.18;;;3.03;;
77214;SDS011;66210;53.282;9.864;2023-08-24T08:43:04;19.25;;;3.13;;
77214;SDS011;66210;53.282;9.864;2023-08-24T08:45:31;8.90;;;3.38;;
77214;SDS011;66210;53.282;9.864;2023-08-24T08:47:59;14.02;;;3.10;;
77214;SDS011;66210;53.282;9.864;2023-08-24T08:50:27;6.65;;;3.00;;
77214;SDS011;66210;53.282;9.864;2023-08-24T08:52:57;7.10;;;2.67;;
77214;SDS011;66210;53.282;9.864;2023-08-24T08:55:25;12.55;;;2.88;;
77214;SDS011;66210;53.282;9.864;2023-08-24T08:57:53;15.15;;;3.15;;
77214;SDS011;66210;53.282;9.864;2023-08-24T09:00:24;5.90;;;2.60;;
77214;SDS011;66210;53.282;9.864;2023-08-24T09:02:51;6.18;;;2.60;;
77214;SDS011;66210;53.282;9.864;2023-08-24T09:05:19;6.13;;;2.50;;
77214;SDS011;66210;53.282;9.864;2023-08-24T09:07:47;6.80;;;2.55;;
77214;SDS011;66210;53.282;9.864;2023-08-24T09:10:14;10.38;;;3.42;;
77214;SDS011;66210;53.282;9.864;2023-08-24T09:12:41;5.55;;;2.33;;
77214;SDS011;66210;53.282;9.864;2023-08-24T09:15:08;7.63;;;3.00;;
77214;SDS011;66210;53.282;9.864;2023-08-24T09:17:35;12.35;;;2.95;;
77214;SDS011;66210;53.282;9.864;2023-08-24T09:20:05;5.80;;;2.55;;
77214;SDS011;66210;53.282;9.864;2023-08-24T09:22:37;8.43;;;2.10;;
77214;SDS011;66210;53.282;9.864;2023-08-24T09:25:04;4.85;;;2.40;;
77214;SDS011;66210;53.282;9.864;2023-08-24T09:27:32;8.30;;;2.40;;
77214;SDS011;66210;53.282;9.864;2023-08-24T09:30:00;6.93;;;2.25;;
77214;SDS011;66210;53.282;9.864;2023-08-24T09:32:28;6.07;;;2.70;;
77214;SDS011;66210;53.282;9.864;2023-08-24T09:34:56;12.05;;;2.42;;
77214;SDS011;66210;53.282;9.864;2023-08-24T09:37:31;22.25;;;3.00;;
77214;SDS011;66210;53.282;9.864;2023-08-24T09:40:02;10.57;;;2.60;;
77214;SDS011;66210;53.282;9.864;2023-08-24T09:42:37;7.45;;;3.10;;
77214;SDS011;66210;53.282;9.864;2023-08-24T09:45:12;5.35;;;2.47;;
77214;SDS011;66210;53.282;9.864;2023-08-24T09:47:39;5.57;;;2.30;;
77214;SDS011;66210;53.282;9.864;2023-08-24T09:50:06;3.50;;;2.15;;
77214;SDS011;66210;53.282;9.864;2023-08-24T09:52:34;48.58;;;3.75;;
77214;SDS011;66210;53.282;9.864;2023-08-24T09:55:02;8.93;;;2.47;;
77214;SDS011;66210;53.282;9.864;2023-08-24T09:57:37;5.05;;;2.30;;
77214;SDS011;66210;53.282;9.864;2023-08-24T10:00:05;3.92;;;2.20;;
77214;SDS011;66210;53.282;9.864;2023-08-24T10:02:40;6.07;;;2.47;;
77214;SDS011;66210;53.282;9.864;2023-08-24T10:05:19;6.20;;;2.92;;
77214;SDS011;66210;53.282;9.864;2023-08-24T10:08:04;5.18;;;2.33;;
77214;SDS011;66210;53.282;9.864;2023-08-24T10:10:35;4.78;;;2.03;;
77214;SDS011;66210;53.282;9.864;2023-08-24T10:15:38;5.72;;;2.47;;
77214;SDS011;66210;53.282;9.864;2023-08-24T10:18:14;6.22;;;2.83;;
77214;SDS011;66210;53.282;9.864;2023-08-24T10:20:42;5.03;;;2.47;;
77214;SDS011;66210;53.282;9.864;2023-08-24T10:23:11;7.18;;;2.45;;
77214;SDS011;66210;53.282;9.864;2023-08-24T10:25:41;4.57;;;2.25;;
77214;SDS011;66210;53.282;9.864;2023-08-24T10:28:10;5.80;;;2.35;;
77214;SDS011;66210;53.282;9.864;2023-08-24T10:30:38;5.60;;;2.85;;
77214;SDS011;66210;53.282;9.864;2023-08-24T10:33:07;7.32;;;2.70;;
77214;SDS011;66210;53.282;9.864;2023-08-24T10:35:35;5.53;;;2.85;;
77214;SDS011;66210;53.282;9.864;2023-08-24T10:38:02;8.20;;;2.85;;
77214;SDS011;66210;53.282;9.864;2023-08-24T10:40:33;4.82;;;2.67;;
77214;SDS011;66210;53.282;9.864;2023-08-24T10:43:03;8.43;;;2.83;;
77214;SDS011;66210;53.282;9.864;2023-08-24T10:48:21;5.57;;;2.60;;
77214;SDS011;66210;53.282;9.864;2023-08-24T10:53:48;5.90;;;2.30;;
77214;SDS011;66210;53.282;9.864;2023-08-24T10:56:18;9.27;;;3.05;;
77214;SDS011;66210;53.282;9.864;2023-08-24T10:58:46;6.25;;;2.30;;
77214;SDS011;66210;53.282;9.864;2023-08-24T11:01:14;9.18;;;2.50;;
77214;SDS011;66210;53.282;9.864;2023-08-24T11:03:50;5.65;;;2.17;;
77214;SDS011;66210;53.282;9.864;2023-08-24T11:06:26;4.65;;;2.10;;
77214;SDS011;66210;53.282;9.864;2023-08-24T11:14:25;5.65;;;2.63;;
77214;SDS011;66210;53.282;9.864;2023-08-24T11:16:53;6.43;;;2.30;;
77214;SDS011;66210;53.282;9.864;2023-08-24T11:19:20;5.55;;;2.13;;
77214;SDS011;66210;53.282;9.864;2023-08-24T11:21:47;4.95;;;2.30;;
77214;SDS011;66210;53.282;9.864;2023-08-24T11:24:14;5.97;;;2.33;;
77214;SDS011;66210;53.282;9.864;2023-08-24T11:26:46;12.05;;;2.88;;
77214;SDS011;66210;53.282;9.864;2023-08-24T11:29:14;4.53;;;2.90;;
77214;SDS011;66210;53.282;9.864;2023-08-24T11:31:47;8.32;;;2.50;;
77214;SDS011;66210;53.282;9.864;2023-08-24T11:34:17;6.07;;;2.75;;
77214;SDS011;66210;53.282;9.864;2023-08-24T11:36:46;5.28;;;2.40;;
77214;SDS011;66210;53.282;9.864;2023-08-24T11:39:14;8.75;;;2.80;;
77214;SDS011;66210;53.282;9.864;2023-08-24T11:44:46;5.18;;;2.38;;
77214;SDS011;66210;53.282;9.864;2023-08-24T11:47:13;6.57;;;2.78;;
77214;SDS011;66210;53.282;9.864;2023-08-24T11:49:40;3.90;;;2.10;;
77214;SDS011;66210;53.282;9.864;2023-08-24T11:52:08;9.07;;;2.88;;
77214;SDS011;66210;53.282;9.864;2023-08-24T11:54:38;4.68;;;2.55;;
77214;SDS011;66210;53.282;9.864;2023-08-24T11:57:08;8.05;;;2.70;;
77214;SDS011;66210;53.282;9.864;2023-08-24T11:59:35;8.18;;;2.60;;
77214;SDS011;66210;53.282;9.864;2023-08-24T12:02:03;3.92;;;2.75;;
77214;SDS011;66210;53.282;9.864;2023-08-24T12:04:38;7.88;;;2.47;;
77214;SDS011;66210;53.282;9.864;2023-08-24T12:07:11;4.00;;;2.35;;
77214;SDS011;66210;53.282;9.864;2023-08-24T12:09:39;10.68;;;2.90;;
77214;SDS011;66210;53.282;9.864;2023-08-24T12:12:11;10.00;;;2.53;;
77214;SDS011;66210;53.282;9.864;2023-08-24T12:14:44;3.67;;;2.20;;
77214;SDS011;66210;53.282;9.864;2023-08-24T12:17:12;8.00;;;2.83;;
77214;SDS011;66210;53.282;9.864;2023-08-24T12:19:43;5.38;;;2.75;;
77214;SDS011;66210;53.282;9.864;2023-08-24T12:22:14;10.73;;;2.60;;
77214;SDS011;66210;53.282;9.864;2023-08-24T12:24:44;12.23;;;2.67;;
77214;SDS011;66210;53.282;9.864;2023-08-24T12:27:25;7.15;;;3.30;;
77214;SDS011;66210;53.282;9.864;2023-08-24T12:29:53;6.38;;;3.13;;
77214;SDS011;66210;53.282;9.864;2023-08-24T12:32:20;5.72;;;2.70;;
77214;SDS011;66210;53.282;9.864;2023-08-24T12:34:49;8.15;;;2.65;;
77214;SDS011;66210;53.282;9.864;2023-08-24T12:37:18;14.95;;;3.33;;
77214;SDS011;66210;53.282;9.864;2023-08-24T12:39:44;4.90;;;2.33;;
77214;SDS011;66210;53.282;9.864;2023-08-24T12:42:11;6.60;;;2.50;;
77214;SDS011;66210;53.282;9.864;2023-08-24T12:44:38;3.25;;;2.35;;
77214;SDS011;66210;53.282;9.864;2023-08-24T12:47:04;4.07;;;2.38;;
77214;SDS011;66210;53.282;9.864;2023-08-24T12:49:31;4.28;;;2.25;;
77214;SDS011;66210;53.282;9.864;2023-08-24T12:51:57;3.30;;;2.40;;
77214;SDS011;66210;53.282;9.864;2023-08-24T12:54:24;4.95;;;2.03;;
77214;SDS011;66210;53.282;9.864;2023-08-24T12:56:51;5.22;;;2.40;;
77214;SDS011;66210;53.282;9.864;2023-08-24T12:59:18;5.05;;;2.50;;
77214;SDS011;66210;53.282;9.864;2023-08-24T13:01:44;5.07;;;2.55;;
77214;SDS011;66210;53.282;9.864;2023-08-24T13:04:11;6.32;;;2.53;;
77214;SDS011;66210;53.282;9.864;2023-08-24T13:06:38;6.65;;;2.67;;
77214;SDS011;66210;53.282;9.864;2023-08-24T13:09:04;5.40;;;2.35;;
77214;SDS011;66210;53.282;9.864;2023-08-24T13:11:32;3.72;;;2.42;;
77214;SDS011;66210;53.282;9.864;2023-08-24T13:13:59;8.15;;;2.70;;
77214;SDS011;66210;53.282;9.864;2023-08-24T13:16:25;6.22;;;2.50;;
77214;SDS011;66210;53.282;9.864;2023-08-24T13:18:54;4.78;;;2.58;;
77214;SDS011;66210;53.282;9.864;2023-08-24T13:21:21;4.80;;;2.25;;
77214;SDS011;66210;53.282;9.864;2023-08-24T13:23:48;4.13;;;2.20;;
77214;SDS011;66210;53.282;9.864;2023-08-24T13:26:18;2.63;;;2.00;;
77214;SDS011;66210;53.282;9.864;2023-08-24T13:28:46;5.68;;;2.30;;
77214;SDS011;66210;53.282;9.864;2023-08-24T13:31:13;5.47;;;2.20;;
77214;SDS011;66210;53.282;9.864;2023-08-24T13:33:40;3.35;;;2.13;;
77214;SDS011;66210;53.282;9.864;2023-08-24T13:36:07;4.10;;;2.25;;
77214;SDS011;66210;53.282;9.864;2023-08-24T13:38:33;7.65;;;2.20;;
77214;SDS011;66210;53.282;9.864;2023-08-24T13:41:00;5.97;;;2.30;;
77214;SDS011;66210;53.282;9.864;2023-08-24T13:43:27;4.63;;;2.17;;
77214;SDS011;66210;53.282;9.864;2023-08-24T13:45:54;4.28;;;2.40;;
77214;SDS011;66210;53.282;9.864;2023-08-24T13:48:21;5.75;;;2.15;;
77214;SDS011;66210;53.282;9.864;2023-08-24T13:50:51;4.97;;;2.20;;
77214;SDS011;66210;53.282;9.864;2023-08-24T13:53:18;5.22;;;2.33;;
77214;SDS011;66210;53.282;9.864;2023-08-24T13:55:45;4.72;;;2.90;;
77214;SDS011;66210;53.282;9.864;2023-08-24T13:58:13;4.63;;;2.25;;
77214;SDS011;66210;53.282;9.864;2023-08-24T14:00:39;5.00;;;2.63;;
77214;SDS011;66210;53.282;9.864;2023-08-24T14:03:06;3.85;;;2.40;;
77214;SDS011;66210;53.282;9.864;2023-08-24T14:05:32;4.22;;;2.40;;
77214;SDS011;66210;53.282;9.864;2023-08-24T14:07:59;5.72;;;2.60;;
77214;SDS011;66210;53.282;9.864;2023-08-24T14:10:25;8.88;;;2.38;;
77214;SDS011;66210;53.282;9.864;2023-08-24T14:12:52;3.55;;;2.33;;
77214;SDS011;66210;53.282;9.864;2023-08-24T14:15:19;3.80;;;2.38;;
77214;SDS011;66210;53.282;9.864;2023-08-24T14:17:46;5.22;;;2.15;;
77214;SDS011;66210;53.282;9.864;2023-08-24T14:20:12;7.72;;;2.30;;
77214;SDS011;66210;53.282;9.864;2023-08-24T14:22:40;4.30;;;2.53;;
77214;SDS011;66210;53.282;9.864;2023-08-24T14:25:07;5.80;;;2.33;;
77214;SDS011;66210;53.282;9.864;2023-08-24T14:27:33;4.15;;;2.35;;
77214;SDS011;66210;53.282;9.864;2023-08-24T14:30:00;3.83;;;2.00;;
77214;SDS011;66210;53.282;9.864;2023-08-24T14:32:26;8.07;;;2.63;;
77214;SDS011;66210;53.282;9.864;2023-08-24T14:34:53;3.58;;;2.28;;
77214;SDS011;66210;53.282;9.864;2023-08-24T14:37:19;4.55;;;2.25;;
77214;SDS011;66210;53.282;9.864;2023-08-24T14:39:46;3.67;;;2.20;;
77214;SDS011;66210;53.282;9.864;2023-08-24T14:42:12;3.70;;;2.10;;
77214;SDS011;66210;53.282;9.864;2023-08-24T14:44:39;5.60;;;2.20;;
77214;SDS011;66210;53.282;9.864;2023-08-24T14:47:06;2.78;;;2.00;;
77214;SDS011;66210;53.282;9.864;2023-08-24T14:49:33;3.85;;;2.35;;
77214;SDS011;66210;53.282;9.864;2023-08-24T14:51:59;2.53;;;1.90;;
77214;SDS011;66210;53.282;9.864;2023-08-24T14:54:26;5.25;;;2.17;;
77214;SDS011;66210;53.282;9.864;2023-08-24T14:56:53;2.90;;;1.98;;
77214;SDS011;66210;53.282;9.864;2023-08-24T14:59:21;7.45;;;2.65;;
77214;SDS011;66210;53.282;9.864;2023-08-24T15:01:48;6.13;;;2.80;;
77214;SDS011;66210;53.282;9.864;2023-08-24T15:04:15;7.47;;;2.80;;
77214;SDS011;66210;53.282;9.864;2023-08-24T15:06:42;7.80;;;2.53;;
77214;SDS011;66210;53.282;9.864;2023-08-24T15:09:08;4.70;;;2.78;;
77214;SDS011;66210;53.282;9.864;2023-08-24T15:11:35;5.65;;;2.55;;
77214;SDS011;66210;53.282;9.864;2023-08-24T15:14:02;9.05;;;3.08;;
77214;SDS011;66210;53.282;9.864;2023-08-24T15:16:28;3.72;;;2.38;;